sensor_id;sensor_type;location;lat;lon;timestamp;P1;durP1;ratioP1;P2;durP2;ratioP2
54384;SDS011;40284;52.878;5.998;2023-03-14T00:00:53;24.60;;;5.22;;
54384;SDS011;40284;52.878;5.998;2023-03-14T00:03:19;22.67;;;5.57;;
54384;SDS011;40284;52.878;5.998;2023-03-14T00:05:45;21.23;;;5.43;;
54384;SDS011;40284;52.878;5.998;2023-03-14T00:08:11;20.95;;;5.45;;
54384;SDS011;40284;52.878;5.998;2023-03-14T00:10:38;22.25;;;5.07;;
54384;SDS011;40284;52.878;5.998;2023-03-14T00:13:04;20.23;;;5.03;;
54384;SDS011;40284;52.878;5.998;2023-03-14T00:15:32;25.83;;;6.25;;
54384;SDS011;40284;52.878;5.998;2023-03-14T00:17:58;25.55;;;5.63;;
54384;SDS011;40284;52.878;5.998;2023-03-14T00:20:24;26.02;;;5.78;;
54384;SDS011;40284;52.878;5.998;2023-03-14T00:22:50;29.30;;;5.68;;
54384;SDS011;40284;52.878;5.998;2023-03-14T00:25:17;18.95;;;5.05;;
54384;SDS011;40284;52.878;5.998;2023-03-14T00:27:43;25.27;;;5.03;;
54384;SDS011;40284;52.878;5.998;2023-03-14T00:30:09;25.25;;;5.18;;
54384;SDS011;40284;52.878;5.998;2023-03-14T00:32:35;23.45;;;5.57;;
54384;SDS011;40284;52.878;5.998;2023-03-14T00:35:02;19.60;;;5.32;;
54384;SDS011;40284;52.878;5.998;2023-03-14T00:37:28;15.18;;;4.63;;
54384;SDS011;40284;52.878;5.998;2023-03-14T00:39:54;21.20;;;5.18;;
54384;SDS011;40284;52.878;5.998;2023-03-14T00:42:20;21.90;;;4.82;;
54384;SDS011;40284;52.878;5.998;2023-03-14T00:44:46;21.30;;;4.50;;
54384;SDS011;40284;52.878;5.998;2023-03-14T00:47:12;20.52;;;4.15;;
54384;SDS011;40284;52.878;5.998;2023-03-14T00:49:38;20.00;;;4.38;;
54384;SDS011;40284;52.878;5.998;2023-03-14T00:52:05;25.52;;;4.72;;
54384;SDS011;40284;52.878;5.998;2023-03-14T00:54:31;23.45;;;5.07;;
54384;SDS011;40284;52.878;5.998;2023-03-14T00:56:57;20.20;;;5.55;;
54384;SDS011;40284;52.878;5.998;2023-03-14T00:59:23;18.95;;;4.60;;
54384;SDS011;40284;52.878;5.998;2023-03-14T01:01:49;21.70;;;4.43;;
54384;SDS011;40284;52.878;5.998;2023-03-14T01:04:15;25.35;;;6.32;;
54384;SDS011;40284;52.878;5.998;2023-03-14T01:06:41;19.10;;;5.00;;
54384;SDS011;40284;52.878;5.998;2023-03-14T01:09:07;25.20;;;4.60;;
54384;SDS011;40284;52.878;5.998;2023-03-14T01:11:34;23.50;;;4.88;;
54384;SDS011;40284;52.878;5.998;2023-03-14T01:14:00;16.17;;;4.32;;
54384;SDS011;40284;52.878;5.998;2023-03-14T01:16:27;22.45;;;4.20;;
54384;SDS011;40284;52.878;5.998;2023-03-14T01:18:54;16.90;;;4.15;;
54384;SDS011;40284;52.878;5.998;2023-03-14T01:23:47;21.55;;;4.32;;
54384;SDS011;40284;52.878;5.998;2023-03-14T01:26:15;19.92;;;4.10;;
54384;SDS011;40284;52.878;5.998;2023-03-14T01:28:41;19.83;;;4.43;;
54384;SDS011;40284;52.878;5.998;2023-03-14T01:31:08;21.75;;;4.00;;
54384;SDS011;40284;52.878;5.998;2023-03-14T01:33:34;18.88;;;3.75;;
54384;SDS011;40284;52.878;5.998;2023-03-14T01:36:01;18.70;;;3.95;;
54384;SDS011;40284;52.878;5.998;2023-03-14T01:38:28;17.75;;;3.10;;
54384;SDS011;40284;52.878;5.998;2023-03-14T01:40:54;15.15;;;3.08;;
54384;SDS011;40284;52.878;5.998;2023-03-14T01:43:20;15.90;;;3.53;;
54384;SDS011;40284;52.878;5.998;2023-03-14T01:46:06;11.60;;;2.95;;
54384;SDS011;40284;52.878;5.998;2023-03-14T01:48:39;15.65;;;4.03;;
54384;SDS011;40284;52.878;5.998;2023-03-14T01:51:06;15.80;;;4.28;;
54384;SDS011;40284;52.878;5.998;2023-03-14T01:53:35;13.77;;;3.45;;
54384;SDS011;40284;52.878;5.998;2023-03-14T01:56:02;22.50;;;4.60;;
54384;SDS011;40284;52.878;5.998;2023-03-14T01:58:28;13.23;;;3.53;;
54384;SDS011;40284;52.878;5.998;2023-03-14T02:00:56;16.35;;;3.35;;
54384;SDS011;40284;52.878;5.998;2023-03-14T02:03:23;15.40;;;3.72;;
54384;SDS011;40284;52.878;5.998;2023-03-14T02:05:49;11.02;;;3.13;;
54384;SDS011;40284;52.878;5.998;2023-03-14T02:08:19;13.73;;;3.70;;
54384;SDS011;40284;52.878;5.998;2023-03-14T02:10:49;13.23;;;3.50;;
54384;SDS011;40284;52.878;5.998;2023-03-14T02:13:15;17.73;;;4.40;;
54384;SDS011;40284;52.878;5.998;2023-03-14T02:15:42;14.23;;;3.10;;
54384;SDS011;40284;52.878;5.998;2023-03-14T02:18:08;15.95;;;3.20;;
54384;SDS011;40284;52.878;5.998;2023-03-14T02:21:23;19.52;;;3.92;;
54384;SDS011;40284;52.878;5.998;2023-03-14T02:24:24;17.27;;;3.13;;
54384;SDS011;40284;52.878;5.998;2023-03-14T02:26:25;11.32;;;2.60;;
54384;SDS011;40284;52.878;5.998;2023-03-14T02:28:53;16.80;;;2.65;;
54384;SDS011;40284;52.878;5.998;2023-03-14T02:31:19;9.82;;;2.58;;
54384;SDS011;40284;52.878;5.998;2023-03-14T02:33:46;17.73;;;3.13;;
54384;SDS011;40284;52.878;5.998;2023-03-14T02:36:13;16.48;;;3.05;;
54384;SDS011;40284;52.878;5.998;2023-03-14T02:41:08;15.05;;;3.10;;
54384;SDS011;40284;52.878;5.998;2023-03-14T02:43:34;13.43;;;2.67;;
54384;SDS011;40284;52.878;5.998;2023-03-14T02:46:01;11.65;;;3.25;;
54384;SDS011;40284;52.878;5.998;2023-03-14T02:48:35;18.15;;;5.03;;
54384;SDS011;40284;52.878;5.998;2023-03-14T02:51:03;9.30;;;3.53;;
54384;SDS011;40284;52.878;5.998;2023-03-14T02:53:33;13.15;;;3.42;;
54384;SDS011;40284;52.878;5.998;2023-03-14T02:55:59;15.27;;;4.00;;
54384;SDS011;40284;52.878;5.998;2023-03-14T02:58:26;17.95;;;3.95;;
54384;SDS011;40284;52.878;5.998;2023-03-14T03:00:52;15.43;;;3.50;;
54384;SDS011;40284;52.878;5.998;2023-03-14T03:03:18;15.90;;;3.47;;
54384;SDS011;40284;52.878;5.998;2023-03-14T03:05:51;11.98;;;3.45;;
54384;SDS011;40284;52.878;5.998;2023-03-14T03:08:21;16.95;;;5.07;;
54384;SDS011;40284;52.878;5.998;2023-03-14T03:10:47;15.02;;;4.00;;
54384;SDS011;40284;52.878;5.998;2023-03-14T03:13:13;17.60;;;4.45;;
54384;SDS011;40284;52.878;5.998;2023-03-14T03:15:40;16.83;;;4.78;;
54384;SDS011;40284;52.878;5.998;2023-03-14T03:18:06;18.52;;;5.30;;
54384;SDS011;40284;52.878;5.998;2023-03-14T03:20:32;22.00;;;4.85;;
54384;SDS011;40284;52.878;5.998;2023-03-14T03:22:58;22.48;;;4.80;;
54384;SDS011;40284;52.878;5.998;2023-03-14T03:25:25;21.23;;;5.32;;
54384;SDS011;40284;52.878;5.998;2023-03-14T03:27:51;31.52;;;6.40;;
54384;SDS011;40284;52.878;5.998;2023-03-14T03:30:17;26.13;;;4.38;;
54384;SDS011;40284;52.878;5.998;2023-03-14T03:32:43;24.42;;;5.32;;
54384;SDS011;40284;52.878;5.998;2023-03-14T03:35:09;20.35;;;4.45;;
54384;SDS011;40284;52.878;5.998;2023-03-14T03:37:35;21.42;;;5.15;;
54384;SDS011;40284;52.878;5.998;2023-03-14T03:40:01;23.75;;;5.13;;
54384;SDS011;40284;52.878;5.998;2023-03-14T03:42:30;19.58;;;4.80;;
54384;SDS011;40284;52.878;5.998;2023-03-14T03:44:57;21.38;;;4.18;;
54384;SDS011;40284;52.878;5.998;2023-03-14T03:47:23;24.10;;;5.22;;
54384;SDS011;40284;52.878;5.998;2023-03-14T03:49:49;30.02;;;5.97;;
54384;SDS011;40284;52.878;5.998;2023-03-14T03:52:15;26.88;;;6.10;;
54384;SDS011;40284;52.878;5.998;2023-03-14T03:54:41;27.95;;;6.18;;
54384;SDS011;40284;52.878;5.998;2023-03-14T03:57:07;20.10;;;6.53;;
54384;SDS011;40284;52.878;5.998;2023-03-14T03:59:33;21.55;;;6.65;;
54384;SDS011;40284;52.878;5.998;2023-03-14T04:01:59;20.38;;;8.20;;
54384;SDS011;40284;52.878;5.998;2023-03-14T04:04:25;24.98;;;6.80;;
54384;SDS011;40284;52.878;5.998;2023-03-14T04:06:51;19.00;;;8.25;;
54384;SDS011;40284;52.878;5.998;2023-03-14T04:09:17;21.25;;;7.07;;
54384;SDS011;40284;52.878;5.998;2023-03-14T04:11:43;18.65;;;7.10;;
54384;SDS011;40284;52.878;5.998;2023-03-14T04:14:09;21.73;;;7.38;;
54384;SDS011;40284;52.878;5.998;2023-03-14T04:16:35;16.92;;;6.82;;
54384;SDS011;40284;52.878;5.998;2023-03-14T04:19:02;16.38;;;6.95;;
54384;SDS011;40284;52.878;5.998;2023-03-14T04:21:28;20.20;;;7.47;;
54384;SDS011;40284;52.878;5.998;2023-03-14T04:23:54;18.70;;;7.90;;
54384;SDS011;40284;52.878;5.998;2023-03-14T04:26:20;17.70;;;7.07;;
54384;SDS011;40284;52.878;5.998;2023-03-14T04:28:46;21.08;;;7.32;;
54384;SDS011;40284;52.878;5.998;2023-03-14T04:31:13;18.88;;;6.38;;
54384;SDS011;40284;52.878;5.998;2023-03-14T04:33:39;22.92;;;6.60;;
54384;SDS011;40284;52.878;5.998;2023-03-14T04:36:06;17.23;;;6.40;;
54384;SDS011;40284;52.878;5.998;2023-03-14T04:38:33;15.63;;;5.68;;
54384;SDS011;40284;52.878;5.998;2023-03-14T04:40:59;15.25;;;5.47;;
54384;SDS011;40284;52.878;5.998;2023-03-14T04:43:25;16.85;;;5.38;;
54384;SDS011;40284;52.878;5.998;2023-03-14T04:45:56;22.83;;;6.20;;
54384;SDS011;40284;52.878;5.998;2023-03-14T04:48:22;17.23;;;5.22;;
54384;SDS011;40284;52.878;5.998;2023-03-14T04:50:49;16.90;;;5.57;;
54384;SDS011;40284;52.878;5.998;2023-03-14T04:53:15;11.52;;;5.25;;
54384;SDS011;40284;52.878;5.998;2023-03-14T04:55:41;11.25;;;5.20;;
54384;SDS011;40284;52.878;5.998;2023-03-14T04:58:08;14.57;;;5.43;;
54384;SDS011;40284;52.878;5.998;2023-03-14T05:00:34;19.60;;;6.30;;
54384;SDS011;40284;52.878;5.998;2023-03-14T05:03:00;19.13;;;6.15;;
54384;SDS011;40284;52.878;5.998;2023-03-14T05:05:26;13.07;;;6.00;;
54384;SDS011;40284;52.878;5.998;2023-03-14T05:07:52;16.45;;;6.25;;
54384;SDS011;40284;52.878;5.998;2023-03-14T05:10:18;20.02;;;7.70;;
54384;SDS011;40284;52.878;5.998;2023-03-14T05:12:44;16.77;;;5.90;;
54384;SDS011;40284;52.878;5.998;2023-03-14T05:15:10;23.23;;;6.72;;
54384;SDS011;40284;52.878;5.998;2023-03-14T05:17:36;22.95;;;7.13;;
54384;SDS011;40284;52.878;5.998;2023-03-14T05:20:03;21.60;;;6.20;;
54384;SDS011;40284;52.878;5.998;2023-03-14T05:22:38;17.52;;;6.50;;
54384;SDS011;40284;52.878;5.998;2023-03-14T05:25:05;15.68;;;5.63;;
54384;SDS011;40284;52.878;5.998;2023-03-14T05:27:32;16.95;;;6.95;;
54384;SDS011;40284;52.878;5.998;2023-03-14T05:29:58;18.35;;;7.15;;
54384;SDS011;40284;52.878;5.998;2023-03-14T05:32:24;15.73;;;6.35;;
54384;SDS011;40284;52.878;5.998;2023-03-14T05:34:50;19.30;;;7.28;;
54384;SDS011;40284;52.878;5.998;2023-03-14T05:37:16;19.55;;;7.43;;
54384;SDS011;40284;52.878;5.998;2023-03-14T05:39:42;18.83;;;7.32;;
54384;SDS011;40284;52.878;5.998;2023-03-14T05:42:08;23.05;;;7.68;;
54384;SDS011;40284;52.878;5.998;2023-03-14T05:44:34;18.83;;;7.43;;
54384;SDS011;40284;52.878;5.998;2023-03-14T05:47:00;19.30;;;7.60;;
54384;SDS011;40284;52.878;5.998;2023-03-14T05:49:26;17.15;;;7.72;;
54384;SDS011;40284;52.878;5.998;2023-03-14T05:51:53;20.33;;;7.45;;
54384;SDS011;40284;52.878;5.998;2023-03-14T05:54:19;17.27;;;7.05;;
54384;SDS011;40284;52.878;5.998;2023-03-14T05:56:45;24.83;;;8.32;;
54384;SDS011;40284;52.878;5.998;2023-03-14T05:59:11;16.80;;;7.65;;
54384;SDS011;40284;52.878;5.998;2023-03-14T06:01:38;14.20;;;7.38;;
54384;SDS011;40284;52.878;5.998;2023-03-14T06:04:05;19.77;;;8.10;;
54384;SDS011;40284;52.878;5.998;2023-03-14T06:06:31;15.68;;;7.70;;
54384;SDS011;40284;52.878;5.998;2023-03-14T06:08:57;21.05;;;8.68;;
54384;SDS011;40284;52.878;5.998;2023-03-14T06:11:23;18.35;;;8.00;;
54384;SDS011;40284;52.878;5.998;2023-03-14T06:13:50;12.80;;;7.32;;
54384;SDS011;40284;52.878;5.998;2023-03-14T06:16:16;11.73;;;7.72;;
54384;SDS011;40284;52.878;5.998;2023-03-14T06:18:42;15.63;;;6.57;;
54384;SDS011;40284;52.878;5.998;2023-03-14T06:21:08;14.23;;;8.07;;
54384;SDS011;40284;52.878;5.998;2023-03-14T06:23:35;20.90;;;7.55;;
54384;SDS011;40284;52.878;5.998;2023-03-14T06:26:01;8.35;;;3.47;;
54384;SDS011;40284;52.878;5.998;2023-03-14T06:28:27;6.13;;;2.70;;
54384;SDS011;40284;52.878;5.998;2023-03-14T06:30:53;8.50;;;3.00;;
54384;SDS011;40284;52.878;5.998;2023-03-14T06:33:19;6.68;;;3.10;;
54384;SDS011;40284;52.878;5.998;2023-03-14T06:35:45;9.77;;;3.17;;
54384;SDS011;40284;52.878;5.998;2023-03-14T06:38:11;10.73;;;3.55;;
54384;SDS011;40284;52.878;5.998;2023-03-14T06:40:37;10.48;;;2.50;;
54384;SDS011;40284;52.878;5.998;2023-03-14T06:43:03;10.40;;;3.17;;
54384;SDS011;40284;52.878;5.998;2023-03-14T06:45:29;7.20;;;2.72;;
54384;SDS011;40284;52.878;5.998;2023-03-14T06:47:55;10.25;;;2.15;;
54384;SDS011;40284;52.878;5.998;2023-03-14T06:50:21;12.13;;;2.35;;
54384;SDS011;40284;52.878;5.998;2023-03-14T06:52:48;9.43;;;1.88;;
54384;SDS011;40284;52.878;5.998;2023-03-14T06:55:14;8.48;;;2.03;;
54384;SDS011;40284;52.878;5.998;2023-03-14T06:57:41;11.35;;;2.20;;
54384;SDS011;40284;52.878;5.998;2023-03-14T07:00:09;13.63;;;2.13;;
54384;SDS011;40284;52.878;5.998;2023-03-14T07:02:35;9.43;;;2.33;;
54384;SDS011;40284;52.878;5.998;2023-03-14T07:05:01;11.82;;;2.17;;
54384;SDS011;40284;52.878;5.998;2023-03-14T07:07:28;12.93;;;2.25;;
54384;SDS011;40284;52.878;5.998;2023-03-14T07:09:54;12.82;;;1.70;;
54384;SDS011;40284;52.878;5.998;2023-03-14T07:12:20;7.63;;;1.55;;
54384;SDS011;40284;52.878;5.998;2023-03-14T07:14:46;6.40;;;2.53;;
54384;SDS011;40284;52.878;5.998;2023-03-14T07:17:12;8.80;;;1.50;;
54384;SDS011;40284;52.878;5.998;2023-03-14T07:19:38;10.77;;;2.38;;
54384;SDS011;40284;52.878;5.998;2023-03-14T07:22:05;6.45;;;1.45;;
54384;SDS011;40284;52.878;5.998;2023-03-14T07:24:31;18.30;;;2.13;;
54384;SDS011;40284;52.878;5.998;2023-03-14T07:26:57;15.70;;;2.20;;
54384;SDS011;40284;52.878;5.998;2023-03-14T07:29:23;9.60;;;1.60;;
54384;SDS011;40284;52.878;5.998;2023-03-14T07:31:49;8.02;;;1.95;;
54384;SDS011;40284;52.878;5.998;2023-03-14T07:34:15;8.73;;;1.05;;
54384;SDS011;40284;52.878;5.998;2023-03-14T07:36:41;8.48;;;1.05;;
54384;SDS011;40284;52.878;5.998;2023-03-14T07:39:07;8.30;;;1.27;;
54384;SDS011;40284;52.878;5.998;2023-03-14T07:41:34;5.78;;;1.27;;
54384;SDS011;40284;52.878;5.998;2023-03-14T07:44:00;6.25;;;1.10;;
54384;SDS011;40284;52.878;5.998;2023-03-14T07:46:26;6.25;;;1.10;;
54384;SDS011;40284;52.878;5.998;2023-03-14T07:48:52;7.15;;;1.40;;
54384;SDS011;40284;52.878;5.998;2023-03-14T07:51:18;5.35;;;1.08;;
54384;SDS011;40284;52.878;5.998;2023-03-14T07:53:44;6.78;;;0.90;;
54384;SDS011;40284;52.878;5.998;2023-03-14T07:56:11;9.55;;;1.65;;
54384;SDS011;40284;52.878;5.998;2023-03-14T07:58:37;3.72;;;1.20;;
54384;SDS011;40284;52.878;5.998;2023-03-14T08:01:03;4.32;;;1.15;;
54384;SDS011;40284;52.878;5.998;2023-03-14T08:03:29;7.43;;;1.20;;
54384;SDS011;40284;52.878;5.998;2023-03-14T08:05:55;7.97;;;1.38;;
54384;SDS011;40284;52.878;5.998;2023-03-14T08:08:21;9.35;;;1.40;;
54384;SDS011;40284;52.878;5.998;2023-03-14T08:10:47;6.05;;;0.95;;
54384;SDS011;40284;52.878;5.998;2023-03-14T08:13:13;9.18;;;1.50;;
54384;SDS011;40284;52.878;5.998;2023-03-14T08:15:39;7.05;;;1.15;;
54384;SDS011;40284;52.878;5.998;2023-03-14T08:18:06;8.32;;;1.70;;
54384;SDS011;40284;52.878;5.998;2023-03-14T08:20:32;4.30;;;1.25;;
54384;SDS011;40284;52.878;5.998;2023-03-14T08:22:59;6.97;;;1.20;;
54384;SDS011;40284;52.878;5.998;2023-03-14T08:25:25;10.15;;;1.25;;
54384;SDS011;40284;52.878;5.998;2023-03-14T08:27:52;10.95;;;1.80;;
54384;SDS011;40284;52.878;5.998;2023-03-14T08:30:19;8.65;;;1.98;;
54384;SDS011;40284;52.878;5.998;2023-03-14T08:32:45;12.15;;;1.40;;
54384;SDS011;40284;52.878;5.998;2023-03-14T08:35:12;10.52;;;1.65;;
54384;SDS011;40284;52.878;5.998;2023-03-14T08:37:38;6.38;;;1.30;;
54384;SDS011;40284;52.878;5.998;2023-03-14T08:40:05;26.70;;;3.13;;
54384;SDS011;40284;52.878;5.998;2023-03-14T08:42:34;8.02;;;2.00;;
54384;SDS011;40284;52.878;5.998;2023-03-14T08:45:00;7.47;;;1.33;;
54384;SDS011;40284;52.878;5.998;2023-03-14T08:47:26;10.02;;;2.60;;
54384;SDS011;40284;52.878;5.998;2023-03-14T08:49:52;9.10;;;1.40;;
54384;SDS011;40284;52.878;5.998;2023-03-14T08:52:18;7.13;;;1.50;;
54384;SDS011;40284;52.878;5.998;2023-03-14T08:54:45;10.82;;;1.95;;
54384;SDS011;40284;52.878;5.998;2023-03-14T08:57:11;15.18;;;2.85;;
54384;SDS011;40284;52.878;5.998;2023-03-14T08:59:37;11.23;;;2.88;;
54384;SDS011;40284;52.878;5.998;2023-03-14T09:02:03;13.70;;;2.42;;
54384;SDS011;40284;52.878;5.998;2023-03-14T09:04:30;10.60;;;3.10;;
54384;SDS011;40284;52.878;5.998;2023-03-14T09:06:56;10.70;;;2.63;;
54384;SDS011;40284;52.878;5.998;2023-03-14T09:09:25;7.20;;;2.00;;
54384;SDS011;40284;52.878;5.998;2023-03-14T09:11:52;15.43;;;3.22;;
54384;SDS011;40284;52.878;5.998;2023-03-14T09:14:18;11.95;;;3.80;;
54384;SDS011;40284;52.878;5.998;2023-03-14T09:16:44;11.35;;;2.80;;
54384;SDS011;40284;52.878;5.998;2023-03-14T09:19:10;18.92;;;3.42;;
54384;SDS011;40284;52.878;5.998;2023-03-14T09:21:36;16.52;;;2.80;;
54384;SDS011;40284;52.878;5.998;2023-03-14T09:24:04;23.13;;;4.15;;
54384;SDS011;40284;52.878;5.998;2023-03-14T09:26:30;20.70;;;3.45;;
54384;SDS011;40284;52.878;5.998;2023-03-14T09:28:56;15.27;;;3.17;;
54384;SDS011;40284;52.878;5.998;2023-03-14T09:31:22;18.52;;;3.20;;
54384;SDS011;40284;52.878;5.998;2023-03-14T09:33:48;24.60;;;4.55;;
54384;SDS011;40284;52.878;5.998;2023-03-14T09:36:15;16.60;;;2.63;;
54384;SDS011;40284;52.878;5.998;2023-03-14T09:38:41;24.20;;;3.75;;
54384;SDS011;40284;52.878;5.998;2023-03-14T09:41:27;22.13;;;4.03;;
54384;SDS011;40284;52.878;5.998;2023-03-14T09:44:04;30.88;;;3.35;;
54384;SDS011;40284;52.878;5.998;2023-03-14T09:46:31;20.13;;;3.60;;
54384;SDS011;40284;52.878;5.998;2023-03-14T09:48:58;21.00;;;3.33;;
54384;SDS011;40284;52.878;5.998;2023-03-14T09:51:24;23.35;;;5.03;;
54384;SDS011;40284;52.878;5.998;2023-03-14T09:53:52;17.13;;;2.95;;
54384;SDS011;40284;52.878;5.998;2023-03-14T09:56:22;27.15;;;4.90;;
54384;SDS011;40284;52.878;5.998;2023-03-14T09:58:52;15.90;;;3.53;;
54384;SDS011;40284;52.878;5.998;2023-03-14T10:01:20;24.33;;;3.83;;
54384;SDS011;40284;52.878;5.998;2023-03-14T10:03:48;16.65;;;4.45;;
54384;SDS011;40284;52.878;5.998;2023-03-14T10:06:14;20.73;;;3.90;;
54384;SDS011;40284;52.878;5.998;2023-03-14T10:08:41;20.92;;;3.85;;
54384;SDS011;40284;52.878;5.998;2023-03-14T10:11:13;19.40;;;3.63;;
54384;SDS011;40284;52.878;5.998;2023-03-14T10:16:15;24.05;;;4.55;;
54384;SDS011;40284;52.878;5.998;2023-03-14T10:18:44;16.40;;;3.28;;
54384;SDS011;40284;52.878;5.998;2023-03-14T10:23:37;22.52;;;3.67;;
54384;SDS011;40284;52.878;5.998;2023-03-14T10:26:05;18.00;;;2.92;;
54384;SDS011;40284;52.878;5.998;2023-03-14T10:28:32;13.52;;;2.80;;
54384;SDS011;40284;52.878;5.998;2023-03-14T10:30:59;18.50;;;3.38;;
54384;SDS011;40284;52.878;5.998;2023-03-14T10:33:29;22.35;;;3.42;;
54384;SDS011;40284;52.878;5.998;2023-03-14T10:36:14;23.08;;;3.40;;
54384;SDS011;40284;52.878;5.998;2023-03-14T10:38:41;11.68;;;2.92;;
54384;SDS011;40284;52.878;5.998;2023-03-14T10:43:59;21.50;;;3.40;;
54384;SDS011;40284;52.878;5.998;2023-03-14T10:46:28;13.68;;;2.42;;
54384;SDS011;40284;52.878;5.998;2023-03-14T10:48:55;13.95;;;3.90;;
54384;SDS011;40284;52.878;5.998;2023-03-14T10:51:25;14.38;;;2.97;;
54384;SDS011;40284;52.878;5.998;2023-03-14T10:56:27;12.02;;;2.33;;
54384;SDS011;40284;52.878;5.998;2023-03-14T10:58:59;15.95;;;3.47;;
54384;SDS011;40284;52.878;5.998;2023-03-14T11:01:27;15.35;;;2.58;;
54384;SDS011;40284;52.878;5.998;2023-03-14T11:04:09;9.52;;;2.30;;
54384;SDS011;40284;52.878;5.998;2023-03-14T11:06:42;12.10;;;2.70;;
54384;SDS011;40284;52.878;5.998;2023-03-14T11:09:12;15.93;;;2.53;;
54384;SDS011;40284;52.878;5.998;2023-03-14T11:11:41;13.27;;;2.72;;
54384;SDS011;40284;52.878;5.998;2023-03-14T11:16:50;16.23;;;2.90;;
54384;SDS011;40284;52.878;5.998;2023-03-14T11:21:58;14.85;;;2.80;;
54384;SDS011;40284;52.878;5.998;2023-03-14T11:29:29;10.98;;;2.35;;
54384;SDS011;40284;52.878;5.998;2023-03-14T11:32:00;11.40;;;2.63;;
54384;SDS011;40284;52.878;5.998;2023-03-14T11:34:27;14.65;;;3.20;;
54384;SDS011;40284;52.878;5.998;2023-03-14T11:39:23;7.68;;;2.03;;
54384;SDS011;40284;52.878;5.998;2023-03-14T11:41:52;8.88;;;1.80;;
54384;SDS011;40284;52.878;5.998;2023-03-14T11:44:32;4.78;;;1.33;;
54384;SDS011;40284;52.878;5.998;2023-03-14T11:51:54;12.60;;;2.40;;
54384;SDS011;40284;52.878;5.998;2023-03-14T11:57:02;5.70;;;1.45;;
54384;SDS011;40284;52.878;5.998;2023-03-14T12:02:06;9.50;;;1.85;;
54384;SDS011;40284;52.878;5.998;2023-03-14T12:07:14;10.30;;;1.50;;
54384;SDS011;40284;52.878;5.998;2023-03-14T12:09:43;5.03;;;1.90;;
54384;SDS011;40284;52.878;5.998;2023-03-14T12:12:12;10.05;;;2.33;;
54384;SDS011;40284;52.878;5.998;2023-03-14T12:14:43;9.82;;;1.58;;
54384;SDS011;40284;52.878;5.998;2023-03-14T12:17:18;9.45;;;1.73;;
54384;SDS011;40284;52.878;5.998;2023-03-14T12:19:45;6.93;;;2.85;;
54384;SDS011;40284;52.878;5.998;2023-03-14T12:22:26;14.02;;;2.00;;
54384;SDS011;40284;52.878;5.998;2023-03-14T12:24:57;8.85;;;2.65;;
54384;SDS011;40284;52.878;5.998;2023-03-14T12:27:41;9.35;;;2.47;;
54384;SDS011;40284;52.878;5.998;2023-03-14T12:30:22;11.63;;;2.75;;
54384;SDS011;40284;52.878;5.998;2023-03-14T12:38:02;8.65;;;1.75;;
54384;SDS011;40284;52.878;5.998;2023-03-14T12:40:39;13.73;;;2.38;;
54384;SDS011;40284;52.878;5.998;2023-03-14T12:43:25;13.68;;;2.20;;
54384;SDS011;40284;52.878;5.998;2023-03-14T12:48:40;5.30;;;1.40;;
54384;SDS011;40284;52.878;5.998;2023-03-14T12:51:13;8.77;;;2.28;;
54384;SDS011;40284;52.878;5.998;2023-03-14T12:58:35;7.30;;;2.30;;
54384;SDS011;40284;52.878;5.998;2023-03-14T13:01:05;6.15;;;1.33;;
54384;SDS011;40284;52.878;5.998;2023-03-14T13:04:07;10.32;;;1.63;;
54384;SDS011;40284;52.878;5.998;2023-03-14T13:12:12;5.82;;;1.55;;
54384;SDS011;40284;52.878;5.998;2023-03-14T13:14:46;8.05;;;1.83;;
54384;SDS011;40284;52.878;5.998;2023-03-14T13:17:13;11.13;;;2.47;;
54384;SDS011;40284;52.878;5.998;2023-03-14T13:19:40;8.20;;;2.30;;
54384;SDS011;40284;52.878;5.998;2023-03-14T13:22:19;11.73;;;1.80;;
54384;SDS011;40284;52.878;5.998;2023-03-14T13:24:46;9.00;;;1.63;;
54384;SDS011;40284;52.878;5.998;2023-03-14T13:27:17;10.88;;;1.70;;
54384;SDS011;40284;52.878;5.998;2023-03-14T13:29:44;15.65;;;2.70;;
54384;SDS011;40284;52.878;5.998;2023-03-14T13:32:17;12.52;;;1.90;;
54384;SDS011;40284;52.878;5.998;2023-03-14T13:34:45;11.40;;;2.25;;
54384;SDS011;40284;52.878;5.998;2023-03-14T13:37:16;10.32;;;2.10;;
54384;SDS011;40284;52.878;5.998;2023-03-14T13:39:42;13.18;;;2.47;;
54384;SDS011;40284;52.878;5.998;2023-03-14T13:42:13;10.52;;;2.17;;
54384;SDS011;40284;52.878;5.998;2023-03-14T13:44:40;10.38;;;2.00;;
54384;SDS011;40284;52.878;5.998;2023-03-14T13:47:14;12.07;;;2.65;;
54384;SDS011;40284;52.878;5.998;2023-03-14T13:49:41;5.22;;;1.55;;
54384;SDS011;40284;52.878;5.998;2023-03-14T13:54:53;7.63;;;2.00;;
54384;SDS011;40284;52.878;5.998;2023-03-14T13:57:19;10.95;;;2.13;;
54384;SDS011;40284;52.878;5.998;2023-03-14T13:59:57;7.93;;;1.98;;
54384;SDS011;40284;52.878;5.998;2023-03-14T14:02:24;9.70;;;2.00;;
54384;SDS011;40284;52.878;5.998;2023-03-14T14:04:51;6.95;;;2.33;;
54384;SDS011;40284;52.878;5.998;2023-03-14T14:07:17;8.35;;;2.45;;
54384;SDS011;40284;52.878;5.998;2023-03-14T14:09:50;4.78;;;1.38;;
54384;SDS011;40284;52.878;5.998;2023-03-14T14:12:18;7.75;;;2.00;;
54384;SDS011;40284;52.878;5.998;2023-03-14T14:17:17;9.75;;;2.28;;
54384;SDS011;40284;52.878;5.998;2023-03-14T14:19:44;6.05;;;1.70;;
54384;SDS011;40284;52.878;5.998;2023-03-14T14:22:11;6.82;;;1.73;;
54384;SDS011;40284;52.878;5.998;2023-03-14T14:24:37;6.18;;;1.75;;
54384;SDS011;40284;52.878;5.998;2023-03-14T14:29:39;11.07;;;2.33;;
54384;SDS011;40284;52.878;5.998;2023-03-14T14:34:42;7.32;;;1.67;;
54384;SDS011;40284;52.878;5.998;2023-03-14T14:37:29;11.48;;;2.10;;
54384;SDS011;40284;52.878;5.998;2023-03-14T14:39:57;9.20;;;1.48;;
54384;SDS011;40284;52.878;5.998;2023-03-14T14:42:27;6.10;;;1.35;;
54384;SDS011;40284;52.878;5.998;2023-03-14T14:44:55;7.93;;;2.30;;
54384;SDS011;40284;52.878;5.998;2023-03-14T14:47:22;8.15;;;2.00;;
54384;SDS011;40284;52.878;5.998;2023-03-14T14:49:49;9.65;;;2.53;;
54384;SDS011;40284;52.878;5.998;2023-03-14T14:52:31;10.48;;;1.63;;
54384;SDS011;40284;52.878;5.998;2023-03-14T14:54:59;11.43;;;2.40;;
54384;SDS011;40284;52.878;5.998;2023-03-14T14:57:26;7.00;;;2.13;;
54384;SDS011;40284;52.878;5.998;2023-03-14T14:59:56;15.35;;;2.30;;
54384;SDS011;40284;52.878;5.998;2023-03-14T15:02:29;11.20;;;2.28;;
54384;SDS011;40284;52.878;5.998;2023-03-14T15:04:55;12.77;;;2.63;;
54384;SDS011;40284;52.878;5.998;2023-03-14T15:07:21;10.23;;;2.08;;
54384;SDS011;40284;52.878;5.998;2023-03-14T15:09:47;15.23;;;3.33;;
54384;SDS011;40284;52.878;5.998;2023-03-14T15:12:13;19.00;;;2.25;;
54384;SDS011;40284;52.878;5.998;2023-03-14T15:14:39;12.55;;;2.75;;
54384;SDS011;40284;52.878;5.998;2023-03-14T15:17:08;7.20;;;1.98;;
54384;SDS011;40284;52.878;5.998;2023-03-14T15:19:34;14.07;;;2.38;;
54384;SDS011;40284;52.878;5.998;2023-03-14T15:22:00;19.27;;;2.40;;
54384;SDS011;40284;52.878;5.998;2023-03-14T15:24:27;13.77;;;2.92;;
54384;SDS011;40284;52.878;5.998;2023-03-14T15:26:53;17.73;;;3.15;;
54384;SDS011;40284;52.878;5.998;2023-03-14T15:29:19;10.05;;;2.38;;
54384;SDS011;40284;52.878;5.998;2023-03-14T15:31:45;11.57;;;3.10;;
54384;SDS011;40284;52.878;5.998;2023-03-14T15:34:11;6.85;;;2.50;;
54384;SDS011;40284;52.878;5.998;2023-03-14T15:36:37;10.13;;;3.47;;
54384;SDS011;40284;52.878;5.998;2023-03-14T15:39:04;8.73;;;3.28;;
54384;SDS011;40284;52.878;5.998;2023-03-14T15:41:31;7.53;;;3.33;;
54384;SDS011;40284;52.878;5.998;2023-03-14T15:43:57;8.80;;;2.47;;
54384;SDS011;40284;52.878;5.998;2023-03-14T15:46:23;13.75;;;2.65;;
54384;SDS011;40284;52.878;5.998;2023-03-14T15:48:50;13.93;;;4.20;;
54384;SDS011;40284;52.878;5.998;2023-03-14T15:51:17;11.48;;;4.15;;